createdAt,value
2023-03-18T00:01:04.275Z,2.95
2023-03-18T00:03:32.689Z,3.30
2023-03-18T00:06:24.170Z,2.35
2023-03-18T00:08:51.006Z,3.83
2023-03-18T00:11:20.242Z,2.95
2023-03-18T00:13:48.113Z,2.72
2023-03-18T00:16:16.689Z,2.63
2023-03-18T00:18:43.963Z,3.15
2023-03-18T00:21:11.142Z,2.22
2023-03-18T00:23:38.837Z,3.28
2023-03-18T00:26:06.844Z,3.58
2023-03-18T00:28:33.640Z,3.58
2023-03-18T00:31:10.334Z,3.03
2023-03-18T00:33:40.182Z,2.70
2023-03-18T00:36:10.424Z,3.22
2023-03-18T00:38:37.630Z,3.08
2023-03-18T00:41:11.593Z,3.30
2023-03-18T00:43:49.467Z,3.15
2023-03-18T00:46:19.528Z,2.80
2023-03-18T00:48:47.495Z,2.90
2023-03-18T00:51:17.293Z,2.70
2023-03-18T00:53:47.724Z,2.65
2023-03-18T00:56:16.504Z,3.08
2023-03-18T00:58:43.336Z,3.72
2023-03-18T01:01:10.402Z,3.50
2023-03-18T01:03:37.189Z,3.13
2023-03-18T01:06:04.386Z,2.97
2023-03-18T01:08:32.213Z,3.13
2023-03-18T01:10:59.564Z,3.35
2023-03-18T01:13:26.358Z,3.67
2023-03-18T01:15:53.369Z,3.17
2023-03-18T01:18:21.106Z,2.90
2023-03-18T01:20:48.860Z,3.35
2023-03-18T01:23:15.828Z,3.83
2023-03-18T01:25:44.795Z,2.95
2023-03-18T01:28:13.501Z,2.35
2023-03-18T01:30:41.084Z,3.40
2023-03-18T01:33:08.077Z,3.28
2023-03-18T01:35:36.497Z,3.70
2023-03-18T01:38:05.719Z,4.43
2023-03-18T01:40:36.329Z,3.00
2023-03-18T01:43:24.997Z,2.65
2023-03-18T01:45:55.464Z,3.08
2023-03-18T01:48:26.218Z,3.83
2023-03-18T01:50:59.792Z,3.13
2023-03-18T01:53:32.763Z,3.00
2023-03-18T01:56:01.408Z,3.47
2023-03-18T01:58:36.836Z,3.03
2023-03-18T02:01:14.830Z,2.65
2023-03-18T02:03:42.995Z,2.90
2023-03-18T02:06:12.489Z,3.50
2023-03-18T02:08:41.050Z,3.00
2023-03-18T02:11:09.744Z,4.25
2023-03-18T02:13:40.785Z,4.47
2023-03-18T02:16:18.582Z,4.20
2023-03-18T02:18:56.646Z,4.88
2023-03-18T02:21:42.647Z,3.03
2023-03-18T02:24:51.694Z,3.67
2023-03-18T02:27:31.888Z,2.90
2023-03-18T02:30:05.103Z,4.18
2023-03-18T02:32:33.598Z,4.85
2023-03-18T02:35:04.634Z,4.60
2023-03-18T02:37:31.460Z,5.10
2023-03-18T02:40:31.206Z,5.88
2023-03-18T02:43:15.757Z,4.80
2023-03-18T02:46:38.448Z,5.43
2023-03-18T02:49:07.894Z,3.95
2023-03-18T02:51:37.241Z,3.15
2023-03-18T02:54:10.327Z,4.60
2023-03-18T02:56:42.484Z,5.00
2023-03-18T02:59:11.024Z,7.13
2023-03-18T03:01:39.380Z,7.03
2023-03-18T03:04:07.699Z,3.67
2023-03-18T03:06:36.098Z,4.55
2023-03-18T03:09:05.631Z,2.85
2023-03-18T03:11:33.190Z,3.00
2023-03-18T03:14:00.099Z,3.53
2023-03-18T03:16:26.884Z,2.67
2023-03-18T03:18:53.862Z,2.40
2023-03-18T03:21:20.646Z,2.53
2023-03-18T03:23:48.348Z,2.63
2023-03-18T03:26:16.857Z,2.88
2023-03-18T03:28:44.227Z,2.58
2023-03-18T03:31:11.256Z,3.13
2023-03-18T03:33:43.807Z,2.92
2023-03-18T03:36:14.612Z,1.85
2023-03-18T03:38:41.793Z,2.22
2023-03-18T03:41:11.684Z,2.30
2023-03-18T03:43:41.283Z,2.45
2023-03-18T03:46:09.536Z,2.50
2023-03-18T03:48:36.435Z,2.28
2023-03-18T03:51:03.519Z,1.52
2023-03-18T03:53:30.287Z,2.40
2023-03-18T03:55:59.138Z,2.75
2023-03-18T03:58:26.876Z,2.10
2023-03-18T04:00:53.644Z,2.60
2023-03-18T04:03:20.405Z,2.45
2023-03-18T04:05:47.884Z,2.60
2023-03-18T04:08:14.665Z,2.55
2023-03-18T04:10:41.554Z,2.10
2023-03-18T04:13:08.954Z,1.52
2023-03-18T04:15:36.007Z,2.10
2023-03-18T04:18:07.223Z,2.38
2023-03-18T04:20:38.844Z,1.88
2023-03-18T04:23:07.479Z,1.53
2023-03-18T04:25:35.410Z,2.13
2023-03-18T04:28:03.286Z,2.58
2023-03-18T04:30:30.900Z,1.65
2023-03-18T04:32:59.800Z,1.50
2023-03-18T04:35:28.438Z,1.58
2023-03-18T04:37:55.421Z,2.22
2023-03-18T04:40:22.246Z,1.88
2023-03-18T04:42:49.040Z,2.70
2023-03-18T04:45:17.700Z,2.65
2023-03-18T04:47:45.591Z,1.80
2023-03-18T04:50:14.350Z,2.20
2023-03-18T04:52:42.869Z,2.28
2023-03-18T04:55:10.866Z,2.03
2023-03-18T04:57:38.629Z,1.90
2023-03-18T05:00:11.786Z,2.55
2023-03-18T05:02:39.991Z,1.33
2023-03-18T05:05:07.957Z,2.05
2023-03-18T05:07:34.778Z,2.00
2023-03-18T05:10:01.549Z,1.45
2023-03-18T05:12:28.334Z,1.90
2023-03-18T05:14:55.190Z,2.20
2023-03-18T05:17:21.934Z,2.28
2023-03-18T05:19:49.260Z,2.22
2023-03-18T05:22:19.739Z,2.20
2023-03-18T05:24:46.990Z,1.98
2023-03-18T05:27:17.323Z,1.80
2023-03-18T05:29:44.725Z,1.83
2023-03-18T05:32:12.787Z,2.88
2023-03-18T05:34:41.447Z,2.28
2023-03-18T05:37:11.173Z,3.42
2023-03-18T05:39:38.526Z,2.90
2023-03-18T05:42:06.516Z,1.92
2023-03-18T05:44:34.138Z,1.92
2023-03-18T05:47:01.784Z,1.83
2023-03-18T05:49:29.107Z,2.00
2023-03-18T05:51:55.923Z,2.40
2023-03-18T05:54:23.564Z,3.05
2023-03-18T05:56:52.512Z,2.30
2023-03-18T05:59:22.210Z,2.78
2023-03-18T06:01:49.313Z,3.25
2023-03-18T06:04:20.064Z,2.83
2023-03-18T06:06:48.463Z,2.00
2023-03-18T06:09:16.682Z,2.33
2023-03-18T06:11:44.686Z,1.83
2023-03-18T06:14:12.823Z,2.10
2023-03-18T06:16:40.379Z,2.45
2023-03-18T06:19:08.202Z,2.90
2023-03-18T06:21:35.002Z,2.25
2023-03-18T06:24:02.387Z,2.95
2023-03-18T06:26:29.486Z,2.45
2023-03-18T06:28:58.514Z,1.75
2023-03-18T06:31:26.122Z,1.98
2023-03-18T06:33:53.479Z,1.45
2023-03-18T06:36:21.771Z,1.75
2023-03-18T06:38:48.556Z,1.58
2023-03-18T06:41:16.390Z,1.98
2023-03-18T06:43:43.440Z,1.50
2023-03-18T06:46:10.749Z,1.65
2023-03-18T06:48:40.507Z,2.42
2023-03-18T06:51:07.914Z,2.22
2023-03-18T06:53:36.521Z,2.83
2023-03-18T06:56:06.148Z,5.40
2023-03-18T06:58:32.884Z,7.72
2023-03-18T07:01:00.488Z,11.32
2023-03-18T07:03:28.293Z,11.27
2023-03-18T07:05:56.131Z,10.52
2023-03-18T07:08:23.584Z,12.68
2023-03-18T07:10:54.695Z,12.63
2023-03-18T07:13:22.677Z,12.60
2023-03-18T07:15:49.687Z,10.63
2023-03-18T07:18:16.534Z,11.90
2023-03-18T07:20:43.533Z,10.27
2023-03-18T07:23:10.717Z,8.52
2023-03-18T07:25:37.546Z,6.50
2023-03-18T07:28:05.859Z,5.75
2023-03-18T07:30:34.081Z,5.53
2023-03-18T07:33:01.317Z,5.45
2023-03-18T07:35:28.752Z,6.88
2023-03-18T07:37:55.689Z,6.45
2023-03-18T07:40:22.883Z,5.22
2023-03-18T07:42:51.726Z,3.47
2023-03-18T07:45:18.599Z,5.35
2023-03-18T07:47:47.273Z,5.78
2023-03-18T07:50:14.468Z,5.95
2023-03-18T07:52:42.022Z,4.28
2023-03-18T07:55:09.457Z,3.67
2023-03-18T07:57:36.803Z,2.40
2023-03-18T08:00:06.092Z,2.72
2023-03-18T08:02:34.085Z,2.30
2023-03-18T08:05:00.956Z,3.63
2023-03-18T08:07:27.779Z,2.80
2023-03-18T08:09:54.615Z,2.88
2023-03-18T08:12:21.956Z,3.83
2023-03-18T08:14:49.839Z,3.50
2023-03-18T08:17:16.723Z,3.17
2023-03-18T08:19:43.519Z,2.75
2023-03-18T08:22:13.235Z,2.70
2023-03-18T08:24:39.969Z,3.63
2023-03-18T08:27:07.145Z,3.20
2023-03-18T08:29:33.906Z,2.55
2023-03-18T08:32:01.402Z,4.47
2023-03-18T08:34:28.369Z,5.28
2023-03-18T08:36:55.225Z,3.17
2023-03-18T08:39:22.800Z,2.92
2023-03-18T08:41:49.512Z,3.85
2023-03-18T08:44:16.591Z,2.70
2023-03-18T08:46:43.346Z,2.55
2023-03-18T08:49:10.899Z,2.40
2023-03-18T08:51:38.634Z,3.05
2023-03-18T08:54:05.948Z,2.15
2023-03-18T08:56:32.708Z,2.53
2023-03-18T08:58:59.419Z,2.20
2023-03-18T09:01:26.366Z,1.70
2023-03-18T09:03:53.753Z,1.83
2023-03-18T09:06:21.178Z,0.77
2023-03-18T09:08:47.963Z,1.25
2023-03-18T09:11:14.809Z,0.90
2023-03-18T09:13:41.584Z,0.82
2023-03-18T09:16:08.570Z,1.00
2023-03-18T09:18:35.540Z,1.42
2023-03-18T09:21:03.418Z,1.65
2023-03-18T09:23:30.231Z,1.10
2023-03-18T09:25:57.355Z,1.05
2023-03-18T09:28:24.208Z,0.70
2023-03-18T09:30:51.521Z,1.00
2023-03-18T09:33:19.687Z,0.80
2023-03-18T09:35:46.795Z,1.05
2023-03-18T09:38:19.980Z,1.02
2023-03-18T09:41:02.817Z,0.65
2023-03-18T09:43:45.082Z,1.05
2023-03-18T09:46:25.604Z,1.13
2023-03-18T09:49:16.774Z,0.88
2023-03-18T09:51:58.750Z,0.88
2023-03-18T09:54:41.472Z,0.82
2023-03-18T09:57:30.697Z,0.98
2023-03-18T10:00:28.846Z,0.68
2023-03-18T10:03:11.264Z,0.68
2023-03-18T10:05:56.346Z,0.70
2023-03-18T10:08:51.381Z,0.80
2023-03-18T10:11:31.258Z,1.13
2023-03-18T10:14:37.130Z,0.98
2023-03-18T10:17:26.152Z,1.13
2023-03-18T10:20:09.350Z,0.80
2023-03-18T10:23:00.410Z,1.00
2023-03-18T10:25:43.981Z,1.10
2023-03-18T10:28:47.437Z,0.85
2023-03-18T10:31:23.785Z,1.27
2023-03-18T10:34:02.861Z,1.33
2023-03-18T10:36:48.286Z,2.95
2023-03-18T10:39:23.504Z,2.45
2023-03-18T10:41:52.517Z,1.42
2023-03-18T10:44:38.855Z,1.88
2023-03-18T10:47:08.394Z,2.72
2023-03-18T10:49:43.801Z,1.80
2023-03-18T10:52:38.148Z,1.23
2023-03-18T10:55:14.357Z,1.40
2023-03-18T10:57:41.558Z,1.20
2023-03-18T11:00:30.350Z,1.20
2023-03-18T11:02:57.807Z,1.63
2023-03-18T11:05:33.828Z,1.40
2023-03-18T11:08:09.097Z,1.80
2023-03-18T11:10:40.578Z,1.42
2023-03-18T11:13:07.462Z,2.25
2023-03-18T11:15:40.460Z,1.83
2023-03-18T11:20:44.953Z,1.92
2023-03-18T11:23:56.534Z,2.10
2023-03-18T11:26:29.636Z,2.05
2023-03-18T11:31:32.891Z,1.42
2023-03-18T11:34:00.752Z,1.90
2023-03-18T11:36:28.596Z,2.10
2023-03-18T11:39:04.868Z,1.95
2023-03-18T11:41:31.662Z,0.90
2023-03-18T11:44:02.314Z,1.77
2023-03-18T11:46:39.402Z,1.00
2023-03-18T11:49:09.896Z,1.50
2023-03-18T11:52:07.162Z,1.52
2023-03-18T11:54:49.204Z,1.77
2023-03-18T11:58:05.481Z,1.30
2023-03-18T12:00:44.002Z,1.52
2023-03-18T12:03:28.142Z,1.67
2023-03-18T12:06:30.919Z,1.55
2023-03-18T12:09:11.773Z,1.35
2023-03-18T12:11:41.335Z,1.25
2023-03-18T12:14:10.870Z,1.58
2023-03-18T12:17:13.445Z,1.27
2023-03-18T12:20:26.440Z,1.27
2023-03-18T12:23:30.132Z,1.80
2023-03-18T12:29:09.715Z,1.38
2023-03-18T12:31:57.491Z,1.25
2023-03-18T12:35:03.103Z,1.45
2023-03-18T12:38:16.296Z,1.67
2023-03-18T12:40:51.557Z,1.27
2023-03-18T12:43:58.655Z,1.20
2023-03-18T12:46:36.180Z,0.80
2023-03-18T12:49:25.912Z,1.38
2023-03-18T12:52:06.456Z,1.92
2023-03-18T12:54:47.493Z,1.45
2023-03-18T12:57:38.495Z,2.10
2023-03-18T13:00:32.641Z,1.92
2023-03-18T13:03:27.502Z,2.45
2023-03-18T13:06:19.109Z,1.95
2023-03-18T13:09:19.144Z,1.65
2023-03-18T13:12:12.581Z,1.98
2023-03-18T13:17:23.610Z,1.80
2023-03-18T13:19:50.633Z,2.00
2023-03-18T13:22:36.027Z,1.52
2023-03-18T13:25:34.787Z,1.48
2023-03-18T13:28:28.498Z,1.40
2023-03-18T13:34:16.080Z,1.33
2023-03-18T13:40:58.919Z,1.27
2023-03-18T13:43:26.237Z,1.30
2023-03-18T13:45:54.218Z,1.33
2023-03-18T13:48:35.539Z,0.95
2023-03-18T13:51:34.930Z,1.83
2023-03-18T13:54:05.846Z,1.25
2023-03-18T13:56:44.352Z,1.58
2023-03-18T13:59:35.633Z,1.42
2023-03-18T14:02:33.882Z,1.48
2023-03-18T14:05:00.973Z,1.25
2023-03-18T14:07:28.724Z,1.27
2023-03-18T14:10:17.168Z,1.30
2023-03-18T14:12:47.889Z,1.30
2023-03-18T14:15:15.114Z,1.15
2023-03-18T14:17:47.874Z,2.63
2023-03-18T14:20:19.849Z,1.88
2023-03-18T14:22:53.223Z,2.05
2023-03-18T14:25:36.481Z,1.30
2023-03-18T14:30:37.173Z,1.50
2023-03-18T14:33:05.254Z,1.10
2023-03-18T14:35:54.729Z,1.15
2023-03-18T14:38:26.218Z,1.25
2023-03-18T14:40:56.387Z,1.33
2023-03-18T14:43:35.570Z,1.33
2023-03-18T14:46:17.754Z,1.27
2023-03-18T14:48:45.228Z,1.42
2023-03-18T14:51:19.038Z,1.58
2023-03-18T14:54:07.093Z,1.40
2023-03-18T14:56:41.259Z,1.23
2023-03-18T14:59:15.800Z,1.40
2023-03-18T15:01:48.198Z,1.92
2023-03-18T15:04:24.125Z,1.75
2023-03-18T15:06:57.040Z,1.35
2023-03-18T15:09:28.592Z,1.10
2023-03-18T15:11:55.858Z,1.17
2023-03-18T15:14:30.679Z,1.20
2023-03-18T15:17:07.372Z,2.13
2023-03-18T15:19:34.107Z,1.58
2023-03-18T15:22:06.436Z,1.60
2023-03-18T15:24:33.560Z,1.35
2023-03-18T15:27:15.264Z,4.05
2023-03-18T15:29:53.167Z,2.63
2023-03-18T15:32:31.822Z,1.63
2023-03-18T15:34:59.005Z,1.40
2023-03-18T15:37:40.695Z,1.90
2023-03-18T15:40:32.044Z,1.88
2023-03-18T15:43:09.402Z,2.53
2023-03-18T15:45:41.830Z,1.80
2023-03-18T15:48:24.013Z,2.22
2023-03-18T15:51:30.987Z,1.83
2023-03-18T15:54:28.111Z,2.05
2023-03-18T15:56:59.403Z,2.40
2023-03-18T15:59:33.738Z,2.47
2023-03-18T16:02:02.230Z,3.08
2023-03-18T16:04:34.246Z,2.40
2023-03-18T16:07:01.081Z,2.08
2023-03-18T16:09:27.838Z,2.85
2023-03-18T16:12:02.530Z,2.35
2023-03-18T16:14:40.083Z,2.53
2023-03-18T16:17:07.168Z,2.50
2023-03-18T16:19:34.002Z,1.90
2023-03-18T16:22:00.809Z,2.45
2023-03-18T16:24:27.676Z,2.92
2023-03-18T16:26:56.881Z,2.92
2023-03-18T16:29:31.667Z,2.20
2023-03-18T16:31:59.993Z,3.17
2023-03-18T16:34:27.961Z,1.95
2023-03-18T16:36:55.419Z,1.27
2023-03-18T16:39:25.083Z,1.10
2023-03-18T16:41:52.482Z,1.02
2023-03-18T16:44:23.584Z,1.20
2023-03-18T16:46:54.624Z,1.88
2023-03-18T16:49:27.152Z,1.10
2023-03-18T16:51:53.964Z,1.40
2023-03-18T16:54:29.382Z,1.10
2023-03-18T16:56:59.532Z,1.13
2023-03-18T16:59:32.132Z,1.17
2023-03-18T17:01:58.869Z,1.67
2023-03-18T17:04:29.391Z,1.52
2023-03-18T17:06:59.831Z,1.00
2023-03-18T17:09:27.801Z,1.00
2023-03-18T17:12:00.018Z,1.02
2023-03-18T17:14:44.050Z,1.17
2023-03-18T17:17:25.381Z,2.13
2023-03-18T17:19:52.207Z,2.15
2023-03-18T17:22:29.230Z,1.73
2023-03-18T17:24:56.566Z,1.27
2023-03-18T17:27:49.833Z,2.08
2023-03-18T17:30:22.646Z,1.92
2023-03-18T17:32:50.787Z,2.10
2023-03-18T17:35:21.910Z,2.10
2023-03-18T17:37:49.529Z,2.13
2023-03-18T17:40:19.429Z,1.92
2023-03-18T17:42:48.067Z,1.48
2023-03-18T17:45:32.464Z,1.30
2023-03-18T17:48:18.087Z,1.30
2023-03-18T17:50:45.111Z,1.23
2023-03-18T17:53:26.771Z,0.90
2023-03-18T17:55:54.829Z,0.82
2023-03-18T17:58:24.796Z,1.38
2023-03-18T18:00:54.096Z,1.10
2023-03-18T18:03:27.952Z,1.27
2023-03-18T18:05:56.929Z,3.65
2023-03-18T18:08:25.755Z,2.10
2023-03-18T18:10:54.721Z,0.93
2023-03-18T18:13:23.432Z,0.95
2023-03-18T18:15:51.189Z,1.15
2023-03-18T18:18:26.756Z,0.85
2023-03-18T18:20:57.800Z,2.72
2023-03-18T18:23:38.957Z,1.90
2023-03-18T18:26:09.469Z,1.90
2023-03-18T18:28:42.796Z,1.88
2023-03-18T18:31:12.262Z,1.75
2023-03-18T18:33:42.500Z,2.53
2023-03-18T18:36:10.178Z,1.38
2023-03-18T18:38:36.997Z,1.38
2023-03-18T18:41:04.734Z,1.55
2023-03-18T18:43:31.878Z,1.48
2023-03-18T18:45:59.261Z,1.35
2023-03-18T18:48:34.728Z,1.17
2023-03-18T18:51:04.259Z,1.48
2023-03-18T18:53:36.719Z,1.25
2023-03-18T18:56:44.002Z,1.50
2023-03-18T18:59:24.926Z,1.30
2023-03-18T19:01:52.092Z,1.17
2023-03-18T19:04:19.100Z,2.03
2023-03-18T19:06:46.473Z,2.00
2023-03-18T19:09:23.784Z,1.85
2023-03-18T19:11:51.801Z,1.75
2023-03-18T19:14:29.074Z,1.55
2023-03-18T19:16:58.830Z,2.75
2023-03-18T19:19:33.471Z,1.05
2023-03-18T19:22:00.563Z,1.42
2023-03-18T19:24:37.120Z,1.33
2023-03-18T19:27:13.858Z,1.95
2023-03-18T19:29:41.586Z,2.10
2023-03-18T19:32:28.577Z,2.17
2023-03-18T19:34:56.074Z,1.38
2023-03-18T19:37:29.457Z,1.98
2023-03-18T19:39:57.247Z,1.40
2023-03-18T19:42:24.080Z,1.50
2023-03-18T19:44:51.241Z,1.50
2023-03-18T19:47:23.033Z,1.90
2023-03-18T19:49:50.702Z,2.33
2023-03-18T19:52:24.516Z,1.60
2023-03-18T19:54:52.839Z,2.25
2023-03-18T19:57:27.986Z,2.15
2023-03-18T19:59:58.774Z,2.03
2023-03-18T20:02:31.573Z,2.05
2023-03-18T20:05:02.331Z,2.33
2023-03-18T20:07:32.717Z,1.73
2023-03-18T20:09:59.814Z,2.53
2023-03-18T20:12:36.654Z,2.03
2023-03-18T20:15:05.805Z,2.00
2023-03-18T20:17:39.500Z,1.60
2023-03-18T20:20:30.581Z,1.63
2023-03-18T20:23:02.798Z,2.10
2023-03-18T20:25:41.278Z,1.73
2023-03-18T20:28:15.800Z,2.05
2023-03-18T20:30:43.686Z,1.23
2023-03-18T20:33:10.628Z,2.50
2023-03-18T20:35:42.988Z,1.88
2023-03-18T20:38:33.832Z,2.58
2023-03-18T20:41:01.112Z,2.30
2023-03-18T20:43:29.786Z,1.60
2023-03-18T20:45:59.580Z,1.90
2023-03-18T20:48:27.920Z,1.80
2023-03-18T20:50:55.431Z,2.10
2023-03-18T20:53:31.862Z,1.73
2023-03-18T20:55:58.679Z,1.90
2023-03-18T20:58:28.233Z,1.15
2023-03-18T21:00:55.451Z,1.60
2023-03-18T21:03:34.865Z,1.63
2023-03-18T21:06:06.656Z,1.50
2023-03-18T21:08:33.882Z,1.92
2023-03-18T21:11:02.153Z,2.63
2023-03-18T21:13:39.453Z,2.53
2023-03-18T21:16:15.300Z,2.30
2023-03-18T21:18:45.429Z,3.10
2023-03-18T21:21:24.085Z,2.13
2023-03-18T21:23:52.634Z,2.20
2023-03-18T21:26:19.425Z,2.35
2023-03-18T21:28:46.201Z,2.53
2023-03-18T21:31:24.218Z,2.22
2023-03-18T21:33:52.288Z,1.75
2023-03-18T21:36:20.584Z,2.20
2023-03-18T21:38:47.601Z,1.45
2023-03-18T21:41:28.139Z,1.77
2023-03-18T21:43:55.067Z,1.90
2023-03-18T21:46:24.934Z,1.63
2023-03-18T21:48:52.250Z,1.77
2023-03-18T21:51:40.276Z,2.28
2023-03-18T21:54:18.400Z,2.40
2023-03-18T21:56:45.164Z,2.55
2023-03-18T21:59:11.871Z,2.90
2023-03-18T22:01:38.655Z,1.85
2023-03-18T22:04:05.708Z,1.80
2023-03-18T22:06:33.506Z,1.73
2023-03-18T22:09:00.331Z,2.22
2023-03-18T22:11:27.776Z,1.45
2023-03-18T22:13:54.608Z,1.85
2023-03-18T22:16:21.932Z,1.73
2023-03-18T22:18:48.776Z,1.50
2023-03-18T22:21:27.687Z,2.03
2023-03-18T22:23:55.750Z,1.77
2023-03-18T22:26:22.742Z,1.80
2023-03-18T22:28:50.727Z,2.17
2023-03-18T22:31:26.720Z,1.95
2023-03-18T22:33:54.288Z,2.53
2023-03-18T22:36:21.922Z,2.67
2023-03-18T22:38:49.422Z,2.35
2023-03-18T22:41:22.686Z,2.45
2023-03-18T22:43:50.947Z,2.15
2023-03-18T22:46:18.070Z,2.58
2023-03-18T22:48:45.046Z,3.13
2023-03-18T22:51:29.954Z,2.38
2023-03-18T22:53:56.976Z,1.77
2023-03-18T22:56:24.062Z,2.63
2023-03-18T22:58:51.369Z,3.03
2023-03-18T23:01:21.374Z,2.08
2023-03-18T23:03:49.048Z,2.50
2023-03-18T23:06:20.909Z,2.58
2023-03-18T23:08:48.108Z,2.22
2023-03-18T23:11:16.638Z,2.45
2023-03-18T23:13:47.606Z,2.83
2023-03-18T23:16:20.403Z,1.90
2023-03-18T23:21:21.738Z,2.15
2023-03-18T23:23:49.024Z,1.98
2023-03-18T23:26:16.246Z,1.83
2023-03-18T23:28:45.388Z,2.20
2023-03-18T23:31:14.956Z,2.05
2023-03-18T23:33:42.572Z,2.47
2023-03-18T23:36:09.734Z,1.52
2023-03-18T23:38:37.996Z,2.25
2023-03-18T23:41:05.629Z,2.65
2023-03-18T23:43:32.385Z,2.35
2023-03-18T23:45:59.309Z,1.55
2023-03-18T23:48:26.288Z,2.97
2023-03-18T23:50:54.093Z,1.85
2023-03-18T23:53:21.054Z,2.63
2023-03-18T23:55:49.540Z,2.28
2023-03-18T23:58:16.715Z,2.70
